sensor_id;sensor_type;location;lat;lon;timestamp;temperature;humidity
72320;SHT30;60269;52.502;16.732;2022-11-15T00:02:37;3.51;99.99
72320;SHT30;60269;52.502;16.732;2022-11-15T00:06:28;3.61;99.99
72320;SHT30;60269;52.502;16.732;2022-11-15T00:10:07;3.64;99.99
72320;SHT30;60269;52.502;16.732;2022-11-15T00:13:59;3.68;99.99
72320;SHT30;60269;52.502;16.732;2022-11-15T00:17:40;3.64;99.99
72320;SHT30;60269;52.502;16.732;2022-11-15T00:21:31;3.65;99.99
72320;SHT30;60269;52.502;16.732;2022-11-15T00:25:17;3.60;99.99
72320;SHT30;60269;52.502;16.732;2022-11-15T00:29:01;3.55;99.99
72320;SHT30;60269;52.502;16.732;2022-11-15T00:32:46;3.54;99.99
72320;SHT30;60269;52.502;16.732;2022-11-15T00:36:33;3.48;99.99
72320;SHT30;60269;52.502;16.732;2022-11-15T00:40:18;3.47;99.99
72320;SHT30;60269;52.502;16.732;2022-11-15T00:44:03;3.47;99.99
72320;SHT30;60269;52.502;16.732;2022-11-15T00:47:48;3.50;99.99
72320;SHT30;60269;52.502;16.732;2022-11-15T00:51:33;3.48;99.99
72320;SHT30;60269;52.502;16.732;2022-11-15T00:55:19;3.47;99.99
72320;SHT30;60269;52.502;16.732;2022-11-15T00:59:04;3.47;99.99
72320;SHT30;60269;52.502;16.732;2022-11-15T01:02:49;3.47;99.99
72320;SHT30;60269;52.502;16.732;2022-11-15T01:06:41;3.45;99.99
72320;SHT30;60269;52.502;16.732;2022-11-15T01:10:20;3.45;99.99
72320;SHT30;60269;52.502;16.732;2022-11-15T01:14:12;3.47;99.99
72320;SHT30;60269;52.502;16.732;2022-11-15T01:17:56;3.47;99.99
72320;SHT30;60269;52.502;16.732;2022-11-15T01:21:49;3.47;99.99
72320;SHT30;60269;52.502;16.732;2022-11-15T01:25:28;3.47;99.99
72320;SHT30;60269;52.502;16.732;2022-11-15T01:29:20;3.50;99.99
72320;SHT30;60269;52.502;16.732;2022-11-15T01:32:59;3.47;99.99
72320;SHT30;60269;52.502;16.732;2022-11-15T01:36:50;3.47;99.99
72320;SHT30;60269;52.502;16.732;2022-11-15T01:40:35;3.50;99.99
72320;SHT30;60269;52.502;16.732;2022-11-15T01:44:47;3.50;99.99
72320;SHT30;60269;52.502;16.732;2022-11-15T01:48:34;3.50;99.99
72320;SHT30;60269;52.502;16.732;2022-11-15T01:52:21;3.45;99.99
72320;SHT30;60269;52.502;16.732;2022-11-15T01:56:09;3.51;99.99
72320;SHT30;60269;52.502;16.732;2022-11-15T01:59:57;3.45;99.99
72320;SHT30;60269;52.502;16.732;2022-11-15T02:03:54;3.44;99.99
72320;SHT30;60269;52.502;16.732;2022-11-15T02:07:53;3.37;99.99
72320;SHT30;60269;52.502;16.732;2022-11-15T02:11:32;3.37;99.99
72320;SHT30;60269;52.502;16.732;2022-11-15T02:15:28;3.34;99.99
72320;SHT30;60269;52.502;16.732;2022-11-15T02:23:50;3.30;99.99
72320;SHT30;60269;52.502;16.732;2022-11-15T02:32:12;3.31;99.99
72320;SHT30;60269;52.502;16.732;2022-11-15T02:36:01;3.27;99.99
72320;SHT30;60269;52.502;16.732;2022-11-15T02:40:27;3.33;99.99
72320;SHT30;60269;52.502;16.732;2022-11-15T02:44:28;3.26;99.99
72320;SHT30;60269;52.502;16.732;2022-11-15T02:48:22;3.27;99.99
72320;SHT30;60269;52.502;16.732;2022-11-15T02:52:02;3.27;99.99
72320;SHT30;60269;52.502;16.732;2022-11-15T02:55:54;3.24;99.99
72320;SHT30;60269;52.502;16.732;2022-11-15T03:03:57;3.19;99.99
72320;SHT30;60269;52.502;16.732;2022-11-15T03:11:49;3.24;99.99
72320;SHT30;60269;52.502;16.732;2022-11-15T03:15:32;3.31;99.99
72320;SHT30;60269;52.502;16.732;2022-11-15T03:19:35;3.42;99.99
72320;SHT30;60269;52.502;16.732;2022-11-15T03:23:17;3.45;99.99
72320;SHT30;60269;52.502;16.732;2022-11-15T03:27:12;3.42;99.99
72320;SHT30;60269;52.502;16.732;2022-11-15T03:30:54;3.41;99.99
72320;SHT30;60269;52.502;16.732;2022-11-15T03:34:52;3.44;99.99
72320;SHT30;60269;52.502;16.732;2022-11-15T03:38:31;3.47;99.99
72320;SHT30;60269;52.502;16.732;2022-11-15T03:42:39;3.48;99.99
72320;SHT30;60269;52.502;16.732;2022-11-15T03:46:27;3.55;99.99
72320;SHT30;60269;52.502;16.732;2022-11-15T03:50:23;3.57;99.99
72320;SHT30;60269;52.502;16.732;2022-11-15T03:54:04;3.61;99.99
72320;SHT30;60269;52.502;16.732;2022-11-15T03:57:58;3.54;99.99
72320;SHT30;60269;52.502;16.732;2022-11-15T04:01:37;3.55;99.99
72320;SHT30;60269;52.502;16.732;2022-11-15T04:05:28;3.54;99.99
72320;SHT30;60269;52.502;16.732;2022-11-15T04:09:07;3.54;99.99
72320;SHT30;60269;52.502;16.732;2022-11-15T04:12:58;3.50;99.99
72320;SHT30;60269;52.502;16.732;2022-11-15T04:16:37;3.55;99.99
72320;SHT30;60269;52.502;16.732;2022-11-15T04:20:30;3.44;99.99
72320;SHT30;60269;52.502;16.732;2022-11-15T04:24:27;3.51;99.99
72320;SHT30;60269;52.502;16.732;2022-11-15T04:28:18;3.47;99.99
72320;SHT30;60269;52.502;16.732;2022-11-15T04:31:57;3.47;99.99
72320;SHT30;60269;52.502;16.732;2022-11-15T04:35:49;3.45;99.99
72320;SHT30;60269;52.502;16.732;2022-11-15T04:39:53;3.48;99.99
72320;SHT30;60269;52.502;16.732;2022-11-15T04:43:37;3.48;99.99
72320;SHT30;60269;52.502;16.732;2022-11-15T04:47:22;3.50;99.99
72320;SHT30;60269;52.502;16.732;2022-11-15T04:51:07;3.52;99.99
72320;SHT30;60269;52.502;16.732;2022-11-15T04:54:52;3.52;99.99
72320;SHT30;60269;52.502;16.732;2022-11-15T04:58:44;3.50;99.99
72320;SHT30;60269;52.502;16.732;2022-11-15T05:02:30;3.48;99.99
72320;SHT30;60269;52.502;16.732;2022-11-15T05:06:33;3.45;99.99
72320;SHT30;60269;52.502;16.732;2022-11-15T05:10:19;3.45;99.99
72320;SHT30;60269;52.502;16.732;2022-11-15T05:14:03;3.41;99.99
72320;SHT30;60269;52.502;16.732;2022-11-15T05:17:49;3.47;99.99
72320;SHT30;60269;52.502;16.732;2022-11-15T05:21:33;3.48;99.99
72320;SHT30;60269;52.502;16.732;2022-11-15T05:25:19;3.30;99.99
72320;SHT30;60269;52.502;16.732;2022-11-15T05:29:10;3.34;99.99
72320;SHT30;60269;52.502;16.732;2022-11-15T05:32:50;3.30;99.99
72320;SHT30;60269;52.502;16.732;2022-11-15T05:36:43;3.34;99.99
72320;SHT30;60269;52.502;16.732;2022-11-15T05:40:27;3.30;99.99
72320;SHT30;60269;52.502;16.732;2022-11-15T05:44:21;3.35;99.99
72320;SHT30;60269;52.502;16.732;2022-11-15T05:48:05;3.30;99.99
72320;SHT30;60269;52.502;16.732;2022-11-15T05:51:58;3.35;99.99
72320;SHT30;60269;52.502;16.732;2022-11-15T05:55:38;3.28;99.99
72320;SHT30;60269;52.502;16.732;2022-11-15T05:59:31;3.28;99.99
72320;SHT30;60269;52.502;16.732;2022-11-15T06:03:11;3.24;99.99
72320;SHT30;60269;52.502;16.732;2022-11-15T06:07:03;3.24;99.99
72320;SHT30;60269;52.502;16.732;2022-11-15T06:10:42;3.21;99.99
72320;SHT30;60269;52.502;16.732;2022-11-15T06:14:41;3.20;99.99
72320;SHT30;60269;52.502;16.732;2022-11-15T06:18:40;3.23;99.99
72320;SHT30;60269;52.502;16.732;2022-11-15T06:22:18;3.17;99.99
72320;SHT30;60269;52.502;16.732;2022-11-15T06:26:10;3.17;99.99
72320;SHT30;60269;52.502;16.732;2022-11-15T06:29:48;3.21;99.99
72320;SHT30;60269;52.502;16.732;2022-11-15T06:33:41;3.21;99.99
72320;SHT30;60269;52.502;16.732;2022-11-15T06:37:19;3.28;99.99
72320;SHT30;60269;52.502;16.732;2022-11-15T06:41:12;3.26;99.99
72320;SHT30;60269;52.502;16.732;2022-11-15T06:44:51;3.23;99.99
72320;SHT30;60269;52.502;16.732;2022-11-15T06:48:43;3.21;99.99
72320;SHT30;60269;52.502;16.732;2022-11-15T06:52:21;3.17;99.99
72320;SHT30;60269;52.502;16.732;2022-11-15T06:56:16;3.28;99.99
72320;SHT30;60269;52.502;16.732;2022-11-15T06:59:54;3.48;99.99
72320;SHT30;60269;52.502;16.732;2022-11-15T07:03:46;3.45;99.99
72320;SHT30;60269;52.502;16.732;2022-11-15T07:07:24;3.48;99.99
72320;SHT30;60269;52.502;16.732;2022-11-15T07:11:16;3.52;99.99
72320;SHT30;60269;52.502;16.732;2022-11-15T07:14:54;3.62;99.99
72320;SHT30;60269;52.502;16.732;2022-11-15T07:18:53;3.72;99.99
72320;SHT30;60269;52.502;16.732;2022-11-15T07:22:59;3.65;99.99
72320;SHT30;60269;52.502;16.732;2022-11-15T07:26:38;3.65;99.99
72320;SHT30;60269;52.502;16.732;2022-11-15T07:30:29;3.67;99.99
72320;SHT30;60269;52.502;16.732;2022-11-15T07:34:16;3.83;99.99
72320;SHT30;60269;52.502;16.732;2022-11-15T07:38:08;3.82;99.96
72320;SHT30;60269;52.502;16.732;2022-11-15T07:41:47;3.83;99.98
72320;SHT30;60269;52.502;16.732;2022-11-15T07:45:58;4.16;99.99
72320;SHT30;60269;52.502;16.732;2022-11-15T07:49:37;3.99;99.80
72320;SHT30;60269;52.502;16.732;2022-11-15T07:53:30;3.86;99.71
72320;SHT30;60269;52.502;16.732;2022-11-15T07:57:09;3.90;99.72
72320;SHT30;60269;52.502;16.732;2022-11-15T08:01:05;3.95;99.73
72320;SHT30;60269;52.502;16.732;2022-11-15T08:04:44;3.96;99.68
72320;SHT30;60269;52.502;16.732;2022-11-15T08:08:36;3.95;99.66
72320;SHT30;60269;52.502;16.732;2022-11-15T08:12:15;4.03;99.70
72320;SHT30;60269;52.502;16.732;2022-11-15T08:16:06;4.05;99.60
72320;SHT30;60269;52.502;16.732;2022-11-15T08:19:52;4.19;99.63
72320;SHT30;60269;52.502;16.732;2022-11-15T08:23:36;4.21;99.58
72320;SHT30;60269;52.502;16.732;2022-11-15T08:27:22;4.30;99.56
72320;SHT30;60269;52.502;16.732;2022-11-15T08:31:06;4.43;99.54
72320;SHT30;60269;52.502;16.732;2022-11-15T08:34:52;4.41;99.47
72320;SHT30;60269;52.502;16.732;2022-11-15T08:38:36;4.47;99.41
72320;SHT30;60269;52.502;16.732;2022-11-15T08:42:22;4.54;99.44
72320;SHT30;60269;52.502;16.732;2022-11-15T08:46:12;4.56;99.20
72320;SHT30;60269;52.502;16.732;2022-11-15T08:49:59;4.61;99.34
72320;SHT30;60269;52.502;16.732;2022-11-15T08:53:44;4.65;99.18
72320;SHT30;60269;52.502;16.732;2022-11-15T08:57:30;4.71;99.17
72320;SHT30;60269;52.502;16.732;2022-11-15T09:01:16;4.98;99.16
72320;SHT30;60269;52.502;16.732;2022-11-15T09:05:03;4.95;99.02
72320;SHT30;60269;52.502;16.732;2022-11-15T09:08:48;4.84;98.83
72320;SHT30;60269;52.502;16.732;2022-11-15T09:12:34;4.92;98.92
72320;SHT30;60269;52.502;16.732;2022-11-15T09:16:25;4.87;98.63
72320;SHT30;60269;52.502;16.732;2022-11-15T09:20:05;5.23;98.92
72320;SHT30;60269;52.502;16.732;2022-11-15T09:23:56;5.06;98.65
72320;SHT30;60269;52.502;16.732;2022-11-15T09:27:35;5.12;98.70
72320;SHT30;60269;52.502;16.732;2022-11-15T09:31:27;5.64;98.88
72320;SHT30;60269;52.502;16.732;2022-11-15T09:35:05;5.98;98.72
72320;SHT30;60269;52.502;16.732;2022-11-15T09:38:58;5.63;97.86
72320;SHT30;60269;52.502;16.732;2022-11-15T09:42:56;5.98;98.52
72320;SHT30;60269;52.502;16.732;2022-11-15T09:50:45;6.05;97.35
72320;SHT30;60269;52.502;16.732;2022-11-15T09:54:39;6.14;98.19
72320;SHT30;60269;52.502;16.732;2022-11-15T09:58:53;6.14;96.95
72320;SHT30;60269;52.502;16.732;2022-11-15T10:10:47;6.06;96.29
72320;SHT30;60269;52.502;16.732;2022-11-15T10:15:03;5.87;97.25
72320;SHT30;60269;52.502;16.732;2022-11-15T10:22:53;5.84;97.60
72320;SHT30;60269;52.502;16.732;2022-11-15T10:26:46;5.94;97.31
72320;SHT30;60269;52.502;16.732;2022-11-15T10:30:37;6.04;97.70
72320;SHT30;60269;52.502;16.732;2022-11-15T10:34:23;6.30;97.76
72320;SHT30;60269;52.502;16.732;2022-11-15T10:38:10;6.56;98.04
72320;SHT30;60269;52.502;16.732;2022-11-15T10:42:26;6.58;96.92
72320;SHT30;60269;52.502;16.732;2022-11-15T10:46:20;6.56;97.34
72320;SHT30;60269;52.502;16.732;2022-11-15T10:50:34;6.47;97.65
72320;SHT30;60269;52.502;16.732;2022-11-15T10:54:39;6.67;97.28
72320;SHT30;60269;52.502;16.732;2022-11-15T10:58:41;6.95;97.59
72320;SHT30;60269;52.502;16.732;2022-11-15T11:02:31;6.93;96.19
72320;SHT30;60269;52.502;16.732;2022-11-15T11:06:17;6.77;96.01
72320;SHT30;60269;52.502;16.732;2022-11-15T11:10:19;6.58;96.34
72320;SHT30;60269;52.502;16.732;2022-11-15T11:14:29;6.77;96.80
72320;SHT30;60269;52.502;16.732;2022-11-15T11:18:30;6.91;96.64
72320;SHT30;60269;52.502;16.732;2022-11-15T11:26:46;7.12;96.10
72320;SHT30;60269;52.502;16.732;2022-11-15T11:30:47;7.29;96.61
72320;SHT30;60269;52.502;16.732;2022-11-15T11:38:48;7.71;95.02
72320;SHT30;60269;52.502;16.732;2022-11-15T11:46:59;8.37;95.24
72320;SHT30;60269;52.502;16.732;2022-11-15T11:50:41;8.35;94.36
72320;SHT30;60269;52.502;16.732;2022-11-15T11:54:46;8.12;94.41
72320;SHT30;60269;52.502;16.732;2022-11-15T11:58:46;8.20;94.48
72320;SHT30;60269;52.502;16.732;2022-11-15T12:03:09;8.24;94.02
72320;SHT30;60269;52.502;16.732;2022-11-15T12:06:53;8.07;93.81
72320;SHT30;60269;52.502;16.732;2022-11-15T12:10:52;8.11;93.90
72320;SHT30;60269;52.502;16.732;2022-11-15T12:18:26;8.10;93.77
72320;SHT30;60269;52.502;16.732;2022-11-15T12:26:01;7.97;94.24
72320;SHT30;60269;52.502;16.732;2022-11-15T12:29:48;7.81;93.91
72320;SHT30;60269;52.502;16.732;2022-11-15T12:33:43;7.94;94.61
72320;SHT30;60269;52.502;16.732;2022-11-15T12:45:31;7.59;93.20
72320;SHT30;60269;52.502;16.732;2022-11-15T13:01:00;7.63;95.13
72320;SHT30;60269;52.502;16.732;2022-11-15T13:04:38;7.62;94.60
72320;SHT30;60269;52.502;16.732;2022-11-15T13:08:56;7.62;95.09
72320;SHT30;60269;52.502;16.732;2022-11-15T13:16:26;7.50;95.61
72320;SHT30;60269;52.502;16.732;2022-11-15T13:23:59;7.18;96.06
72320;SHT30;60269;52.502;16.732;2022-11-15T13:27:40;7.18;96.28
72320;SHT30;60269;52.502;16.732;2022-11-15T13:31:36;7.18;95.92
72320;SHT30;60269;52.502;16.732;2022-11-15T13:35:24;7.04;96.38
72320;SHT30;60269;52.502;16.732;2022-11-15T13:39:31;6.69;95.87
72320;SHT30;60269;52.502;16.732;2022-11-15T13:47:20;6.46;97.61
72320;SHT30;60269;52.502;16.732;2022-11-15T13:51:36;6.62;97.68
72320;SHT30;60269;52.502;16.732;2022-11-15T13:55:18;6.64;97.64
72320;SHT30;60269;52.502;16.732;2022-11-15T13:59:18;6.66;97.45
72320;SHT30;60269;52.502;16.732;2022-11-15T14:03:19;6.66;97.31
72320;SHT30;60269;52.502;16.732;2022-11-15T14:07:17;6.63;97.28
72320;SHT30;60269;52.502;16.732;2022-11-15T14:11:16;6.58;97.47
72320;SHT30;60269;52.502;16.732;2022-11-15T14:15:34;6.44;97.83
72320;SHT30;60269;52.502;16.732;2022-11-15T14:19:34;6.35;97.85
72320;SHT30;60269;52.502;16.732;2022-11-15T14:23:27;6.22;97.91
72320;SHT30;60269;52.502;16.732;2022-11-15T14:27:22;6.02;98.39
72320;SHT30;60269;52.502;16.732;2022-11-15T14:31:14;6.04;98.65
72320;SHT30;60269;52.502;16.732;2022-11-15T14:34:55;6.02;98.45
72320;SHT30;60269;52.502;16.732;2022-11-15T14:38:47;5.95;98.82
72320;SHT30;60269;52.502;16.732;2022-11-15T14:42:26;5.97;98.65
72320;SHT30;60269;52.502;16.732;2022-11-15T14:46:19;5.88;98.73
72320;SHT30;60269;52.502;16.732;2022-11-15T14:49:57;5.88;98.99
72320;SHT30;60269;52.502;16.732;2022-11-15T14:53:49;5.91;98.82
72320;SHT30;60269;52.502;16.732;2022-11-15T14:57:28;5.71;99.04
72320;SHT30;60269;52.502;16.732;2022-11-15T15:01:25;5.63;99.13
72320;SHT30;60269;52.502;16.732;2022-11-15T15:05:32;5.53;99.33
72320;SHT30;60269;52.502;16.732;2022-11-15T15:09:23;5.56;99.32
72320;SHT30;60269;52.502;16.732;2022-11-15T15:13:03;5.57;99.30
72320;SHT30;60269;52.502;16.732;2022-11-15T15:16:55;5.44;99.39
72320;SHT30;60269;52.502;16.732;2022-11-15T15:20:35;5.39;99.54
72320;SHT30;60269;52.502;16.732;2022-11-15T15:24:28;5.42;99.58
72320;SHT30;60269;52.502;16.732;2022-11-15T15:28:07;5.37;99.63
72320;SHT30;60269;52.502;16.732;2022-11-15T15:31:58;5.44;99.54
72320;SHT30;60269;52.502;16.732;2022-11-15T15:35:37;5.35;99.49
72320;SHT30;60269;52.502;16.732;2022-11-15T15:39:29;5.27;99.55
72320;SHT30;60269;52.502;16.732;2022-11-15T15:43:15;5.23;99.53
72320;SHT30;60269;52.502;16.732;2022-11-15T15:47:11;5.13;99.78
72320;SHT30;60269;52.502;16.732;2022-11-15T15:50:50;5.19;99.77
72320;SHT30;60269;52.502;16.732;2022-11-15T15:54:42;5.25;99.64
72320;SHT30;60269;52.502;16.732;2022-11-15T15:58:21;5.16;99.65
72320;SHT30;60269;52.502;16.732;2022-11-15T16:02:13;5.25;99.71
72320;SHT30;60269;52.502;16.732;2022-11-15T16:05:51;5.26;99.50
72320;SHT30;60269;52.502;16.732;2022-11-15T16:09:43;5.18;99.41
72320;SHT30;60269;52.502;16.732;2022-11-15T16:13:40;5.15;99.51
72320;SHT30;60269;52.502;16.732;2022-11-15T16:17:33;5.16;99.57
72320;SHT30;60269;52.502;16.732;2022-11-15T16:21:12;5.15;99.57
72320;SHT30;60269;52.502;16.732;2022-11-15T16:25:04;5.12;99.60
72320;SHT30;60269;52.502;16.732;2022-11-15T16:28:42;5.12;99.57
72320;SHT30;60269;52.502;16.732;2022-11-15T16:32:33;5.08;99.48
72320;SHT30;60269;52.502;16.732;2022-11-15T16:44:00;5.16;99.73
72320;SHT30;60269;52.502;16.732;2022-11-15T16:47:52;5.20;99.63
72320;SHT30;60269;52.502;16.732;2022-11-15T16:51:30;5.23;99.60
72320;SHT30;60269;52.502;16.732;2022-11-15T16:55:26;5.15;99.69
72320;SHT30;60269;52.502;16.732;2022-11-15T16:59:05;5.22;99.80
72320;SHT30;60269;52.502;16.732;2022-11-15T17:02:57;5.25;99.81
72320;SHT30;60269;52.502;16.732;2022-11-15T17:06:39;5.26;99.74
72320;SHT30;60269;52.502;16.732;2022-11-15T17:10:31;5.30;99.70
72320;SHT30;60269;52.502;16.732;2022-11-15T17:14:11;5.32;99.83
72320;SHT30;60269;52.502;16.732;2022-11-15T17:18:04;5.37;99.72
72320;SHT30;60269;52.502;16.732;2022-11-15T17:21:44;5.40;99.64
72320;SHT30;60269;52.502;16.732;2022-11-15T17:25:37;5.40;99.70
72320;SHT30;60269;52.502;16.732;2022-11-15T17:29:16;5.44;99.68
72320;SHT30;60269;52.502;16.732;2022-11-15T17:33:08;5.40;99.70
72320;SHT30;60269;52.502;16.732;2022-11-15T17:36:48;5.42;99.75
72320;SHT30;60269;52.502;16.732;2022-11-15T17:40:39;5.40;99.76
72320;SHT30;60269;52.502;16.732;2022-11-15T17:44:18;5.46;99.88
72320;SHT30;60269;52.502;16.732;2022-11-15T17:48:10;5.50;99.70
72320;SHT30;60269;52.502;16.732;2022-11-15T17:51:50;5.51;99.79
72320;SHT30;60269;52.502;16.732;2022-11-15T17:55:42;5.61;99.65
72320;SHT30;60269;52.502;16.732;2022-11-15T17:59:28;5.58;99.62
72320;SHT30;60269;52.502;16.732;2022-11-15T18:03:13;5.66;99.65
72320;SHT30;60269;52.502;16.732;2022-11-15T18:06:58;5.63;99.69
72320;SHT30;60269;52.502;16.732;2022-11-15T18:10:42;5.57;99.71
72320;SHT30;60269;52.502;16.732;2022-11-15T18:14:28;5.60;99.76
72320;SHT30;60269;52.502;16.732;2022-11-15T18:18:12;5.66;99.65
72320;SHT30;60269;52.502;16.732;2022-11-15T18:21:58;5.70;99.68
72320;SHT30;60269;52.502;16.732;2022-11-15T18:25:50;5.64;99.69
72320;SHT30;60269;52.502;16.732;2022-11-15T18:29:36;5.66;99.76
72320;SHT30;60269;52.502;16.732;2022-11-15T18:33:21;5.71;99.67
72320;SHT30;60269;52.502;16.732;2022-11-15T18:37:07;5.68;99.56
72320;SHT30;60269;52.502;16.732;2022-11-15T18:40:52;5.64;99.51
72320;SHT30;60269;52.502;16.732;2022-11-15T18:44:38;5.70;99.50
72320;SHT30;60269;52.502;16.732;2022-11-15T18:48:22;5.66;99.42
72320;SHT30;60269;52.502;16.732;2022-11-15T18:52:08;5.66;99.42
72320;SHT30;60269;52.502;16.732;2022-11-15T18:55:52;5.70;99.31
72320;SHT30;60269;52.502;16.732;2022-11-15T18:59:38;5.67;99.35
72320;SHT30;60269;52.502;16.732;2022-11-15T19:03:22;5.74;99.29
72320;SHT30;60269;52.502;16.732;2022-11-15T19:07:08;5.71;99.22
72320;SHT30;60269;52.502;16.732;2022-11-15T19:10:52;5.70;99.12
72320;SHT30;60269;52.502;16.732;2022-11-15T19:14:38;5.68;99.20
72320;SHT30;60269;52.502;16.732;2022-11-15T19:18:22;5.68;99.22
72320;SHT30;60269;52.502;16.732;2022-11-15T19:22:08;5.68;99.20
72320;SHT30;60269;52.502;16.732;2022-11-15T19:25:57;5.71;99.14
72320;SHT30;60269;52.502;16.732;2022-11-15T19:29:43;5.71;99.08
72320;SHT30;60269;52.502;16.732;2022-11-15T19:33:27;5.67;99.15
72320;SHT30;60269;52.502;16.732;2022-11-15T19:37:13;5.68;99.20
72320;SHT30;60269;52.502;16.732;2022-11-15T19:41:02;5.75;99.17
72320;SHT30;60269;52.502;16.732;2022-11-15T19:44:48;5.78;98.97
72320;SHT30;60269;52.502;16.732;2022-11-15T19:48:34;5.79;99.04
72320;SHT30;60269;52.502;16.732;2022-11-15T19:52:19;5.74;98.94
72320;SHT30;60269;52.502;16.732;2022-11-15T19:56:12;5.77;98.95
72320;SHT30;60269;52.502;16.732;2022-11-15T19:59:51;5.75;98.88
72320;SHT30;60269;52.502;16.732;2022-11-15T20:03:52;5.77;98.77
72320;SHT30;60269;52.502;16.732;2022-11-15T20:07:31;5.79;98.89
72320;SHT30;60269;52.502;16.732;2022-11-15T20:11:23;5.75;98.82
72320;SHT30;60269;52.502;16.732;2022-11-15T20:15:01;5.78;98.67
72320;SHT30;60269;52.502;16.732;2022-11-15T20:18:52;5.78;98.78
72320;SHT30;60269;52.502;16.732;2022-11-15T20:22:31;5.75;98.81
72320;SHT30;60269;52.502;16.732;2022-11-15T20:26:22;5.78;98.84
72320;SHT30;60269;52.502;16.732;2022-11-15T20:30:02;5.79;98.69
72320;SHT30;60269;52.502;16.732;2022-11-15T20:33:54;5.83;98.59
72320;SHT30;60269;52.502;16.732;2022-11-15T20:37:32;5.77;98.61
72320;SHT30;60269;52.502;16.732;2022-11-15T20:41:25;5.75;98.70
72320;SHT30;60269;52.502;16.732;2022-11-15T20:45:05;5.73;98.78
72320;SHT30;60269;52.502;16.732;2022-11-15T20:48:56;5.75;98.84
72320;SHT30;60269;52.502;16.732;2022-11-15T20:52:35;5.73;99.00
72320;SHT30;60269;52.502;16.732;2022-11-15T20:56:27;5.75;98.96
72320;SHT30;60269;52.502;16.732;2022-11-15T21:00:07;5.81;98.83
72320;SHT30;60269;52.502;16.732;2022-11-15T21:03:58;5.73;98.85
72320;SHT30;60269;52.502;16.732;2022-11-15T21:07:38;5.77;98.85
72320;SHT30;60269;52.502;16.732;2022-11-15T21:11:29;5.77;98.70
72320;SHT30;60269;52.502;16.732;2022-11-15T21:15:27;5.78;98.63
72320;SHT30;60269;52.502;16.732;2022-11-15T21:19:18;5.75;98.63
72320;SHT30;60269;52.502;16.732;2022-11-15T21:23:06;5.75;98.52
72320;SHT30;60269;52.502;16.732;2022-11-15T21:26:58;5.70;98.55
72320;SHT30;60269;52.502;16.732;2022-11-15T21:30:37;5.79;98.49
72320;SHT30;60269;52.502;16.732;2022-11-15T21:34:28;5.81;98.49
72320;SHT30;60269;52.502;16.732;2022-11-15T21:38:07;5.74;98.46
72320;SHT30;60269;52.502;16.732;2022-11-15T21:41:58;5.79;98.35
72320;SHT30;60269;52.502;16.732;2022-11-15T21:45:37;5.83;98.31
72320;SHT30;60269;52.502;16.732;2022-11-15T21:49:29;5.79;98.30
72320;SHT30;60269;52.502;16.732;2022-11-15T21:53:08;5.77;98.29
72320;SHT30;60269;52.502;16.732;2022-11-15T21:57:00;5.75;98.33
72320;SHT30;60269;52.502;16.732;2022-11-15T22:00:39;5.83;98.30
72320;SHT30;60269;52.502;16.732;2022-11-15T22:04:50;5.77;98.55
72320;SHT30;60269;52.502;16.732;2022-11-15T22:08:29;5.79;98.44
72320;SHT30;60269;52.502;16.732;2022-11-15T22:12:21;5.81;98.51
72320;SHT30;60269;52.502;16.732;2022-11-15T22:16:00;5.83;98.54
72320;SHT30;60269;52.502;16.732;2022-11-15T22:19:52;5.75;98.44
72320;SHT30;60269;52.502;16.732;2022-11-15T22:23:51;5.78;98.45
72320;SHT30;60269;52.502;16.732;2022-11-15T22:27:42;5.73;98.41
72320;SHT30;60269;52.502;16.732;2022-11-15T22:31:21;5.75;98.28
72320;SHT30;60269;52.502;16.732;2022-11-15T22:35:13;5.75;98.10
72320;SHT30;60269;52.502;16.732;2022-11-15T22:38:51;5.74;97.70
72320;SHT30;60269;52.502;16.732;2022-11-15T22:42:43;5.75;97.77
72320;SHT30;60269;52.502;16.732;2022-11-15T22:46:22;5.73;98.15
72320;SHT30;60269;52.502;16.732;2022-11-15T22:50:13;5.77;98.19
72320;SHT30;60269;52.502;16.732;2022-11-15T22:53:53;5.67;98.05
72320;SHT30;60269;52.502;16.732;2022-11-15T22:57:45;5.66;98.04
72320;SHT30;60269;52.502;16.732;2022-11-15T23:01:23;5.64;97.92
72320;SHT30;60269;52.502;16.732;2022-11-15T23:05:14;5.70;98.14
72320;SHT30;60269;52.502;16.732;2022-11-15T23:09:21;5.63;98.22
72320;SHT30;60269;52.502;16.732;2022-11-15T23:13:14;5.61;98.27
72320;SHT30;60269;52.502;16.732;2022-11-15T23:16:55;5.60;98.34
72320;SHT30;60269;52.502;16.732;2022-11-15T23:20:46;5.54;98.44
72320;SHT30;60269;52.502;16.732;2022-11-15T23:24:25;5.53;98.49
72320;SHT30;60269;52.502;16.732;2022-11-15T23:28:17;5.58;98.32
72320;SHT30;60269;52.502;16.732;2022-11-15T23:32:15;5.50;98.31
72320;SHT30;60269;52.502;16.732;2022-11-15T23:36:33;5.46;98.44
72320;SHT30;60269;52.502;16.732;2022-11-15T23:40:12;5.46;98.43
72320;SHT30;60269;52.502;16.732;2022-11-15T23:44:04;5.51;98.40
72320;SHT30;60269;52.502;16.732;2022-11-15T23:47:43;5.43;98.35
72320;SHT30;60269;52.502;16.732;2022-11-15T23:51:35;5.46;98.31
72320;SHT30;60269;52.502;16.732;2022-11-15T23:55:13;5.47;98.13
72320;SHT30;60269;52.502;16.732;2022-11-15T23:59:05;5.43;98.36
